createdAt,value
2022-08-09T00:01:10.317Z,4.00
2022-08-09T00:04:05.534Z,3.20
2022-08-09T00:06:38.026Z,3.60
2022-08-09T00:09:10.520Z,3.40
2022-08-09T00:12:03.830Z,3.70
2022-08-09T00:14:38.352Z,3.80
2022-08-09T00:17:15.132Z,3.30
2022-08-09T00:20:01.902Z,3.40
2022-08-09T00:22:36.318Z,3.60
2022-08-09T00:25:12.818Z,3.40
2022-08-09T00:27:44.236Z,3.30
2022-08-09T00:30:26.030Z,3.00
2022-08-09T00:32:58.348Z,3.60
2022-08-09T00:35:29.943Z,3.40
2022-08-09T00:38:16.064Z,3.40
2022-08-09T00:40:54.039Z,3.40
2022-08-09T00:44:15.860Z,3.40
2022-08-09T00:46:44.098Z,3.20
2022-08-09T00:49:10.954Z,3.00
2022-08-09T00:51:42.718Z,3.20
2022-08-09T00:54:31.524Z,3.40
2022-08-09T00:57:10.311Z,3.10
2022-08-09T00:59:46.306Z,3.20
2022-08-09T01:02:23.097Z,4.00
2022-08-09T01:05:03.281Z,3.90
2022-08-09T01:07:59.748Z,3.20
2022-08-09T01:10:39.404Z,3.10
2022-08-09T01:13:22.371Z,3.40
2022-08-09T01:15:56.753Z,3.70
2022-08-09T01:18:32.586Z,3.50
2022-08-09T01:21:18.411Z,3.30
2022-08-09T01:24:04.998Z,3.60
2022-08-09T01:27:02.490Z,3.60
2022-08-09T01:29:56.095Z,3.40
2022-08-09T01:32:34.258Z,3.50
2022-08-09T01:35:38.047Z,3.70
2022-08-09T01:38:10.761Z,3.60
2022-08-09T01:40:52.926Z,3.10
2022-08-09T01:43:50.577Z,3.50
2022-08-09T01:46:27.699Z,3.40
2022-08-09T01:49:09.431Z,3.70
2022-08-09T01:51:54.011Z,3.70
2022-08-09T01:54:32.550Z,4.10
2022-08-09T01:57:14.964Z,3.20
2022-08-09T01:59:51.651Z,3.90
2022-08-09T02:02:30.105Z,3.60
2022-08-09T02:05:15.719Z,3.50
2022-08-09T02:08:39.194Z,4.10
2022-08-09T02:10:50.683Z,3.70
2022-08-09T02:13:26.108Z,3.70
2022-08-09T02:16:11.573Z,3.70
2022-08-09T02:18:47.654Z,3.90
2022-08-09T02:21:24.898Z,3.70
2022-08-09T02:24:02.040Z,3.30
2022-08-09T02:29:18.109Z,3.50
2022-08-09T02:31:51.583Z,3.60
2022-08-09T02:34:40.161Z,3.80
2022-08-09T02:37:16.654Z,4.00
2022-08-09T02:39:55.206Z,3.50
2022-08-09T02:42:36.502Z,3.40
2022-08-09T02:45:13.231Z,3.50
2022-08-09T02:47:59.203Z,3.80
2022-08-09T02:50:36.499Z,3.90
2022-08-09T02:53:25.822Z,3.40
2022-08-09T02:56:01.139Z,3.20
2022-08-09T02:58:36.681Z,3.30
2022-08-09T03:01:15.106Z,3.40
2022-08-09T03:04:17.011Z,3.60
2022-08-09T03:06:49.232Z,3.20
2022-08-09T03:09:21.995Z,3.50
2022-08-09T03:12:11.023Z,3.20
2022-08-09T03:14:44.343Z,3.50
2022-08-09T03:17:26.409Z,3.70
2022-08-09T03:20:05.172Z,3.10
2022-08-09T03:22:56.833Z,3.20
2022-08-09T03:25:56.944Z,3.20
2022-08-09T03:28:24.605Z,3.30
2022-08-09T03:30:57.859Z,3.60
2022-08-09T03:33:53.484Z,3.40
2022-08-09T03:36:37.818Z,3.00
2022-08-09T03:39:16.931Z,3.10
2022-08-09T03:42:06.395Z,3.00
2022-08-09T03:44:44.335Z,2.80
2022-08-09T03:47:16.035Z,3.30
2022-08-09T03:49:58.273Z,3.60
2022-08-09T03:52:33.191Z,2.90
2022-08-09T03:55:09.900Z,2.90
2022-08-09T03:57:53.468Z,3.30
2022-08-09T04:00:34.629Z,3.20
2022-08-09T04:03:08.536Z,3.10
2022-08-09T04:05:43.838Z,3.10
2022-08-09T04:08:17.182Z,3.10
2022-08-09T04:10:49.797Z,3.00
2022-08-09T04:13:45.105Z,3.10
2022-08-09T04:16:20.632Z,3.30
2022-08-09T04:18:52.906Z,3.10
2022-08-09T04:21:25.532Z,2.70
2022-08-09T04:23:57.555Z,3.60
2022-08-09T04:26:35.203Z,3.20
2022-08-09T04:29:15.690Z,3.40
2022-08-09T04:31:47.885Z,3.30
2022-08-09T04:34:31.958Z,3.50
2022-08-09T04:37:04.066Z,3.30
2022-08-09T04:39:40.593Z,3.40
2022-08-09T04:42:15.891Z,3.10
2022-08-09T04:44:49.903Z,3.10
2022-08-09T04:47:25.283Z,3.10
2022-08-09T04:50:04.769Z,3.30
2022-08-09T04:52:36.655Z,3.50
2022-08-09T04:55:11.990Z,3.10
2022-08-09T04:57:58.923Z,3.20
2022-08-09T05:00:36.052Z,3.00
2022-08-09T05:03:30.617Z,3.20
2022-08-09T05:06:06.414Z,3.60
2022-08-09T05:08:43.910Z,3.80
2022-08-09T05:11:19.151Z,3.80
2022-08-09T05:13:55.050Z,4.30
2022-08-09T05:16:31.751Z,3.90
2022-08-09T05:19:03.768Z,3.70
2022-08-09T05:21:47.173Z,3.80
2022-08-09T05:24:27.360Z,3.20
2022-08-09T05:26:59.461Z,2.80
2022-08-09T05:29:35.412Z,3.30
2022-08-09T05:32:08.326Z,2.70
2022-08-09T05:34:42.913Z,2.70
2022-08-09T05:37:17.215Z,2.70
2022-08-09T05:39:48.755Z,3.10
2022-08-09T05:42:33.405Z,2.80
2022-08-09T05:45:06.090Z,3.20
2022-08-09T05:47:45.609Z,3.00
2022-08-09T05:50:44.315Z,3.00
2022-08-09T05:53:30.955Z,3.40
2022-08-09T05:56:05.156Z,3.20
2022-08-09T05:58:36.676Z,3.40
2022-08-09T06:01:08.120Z,3.50
2022-08-09T06:03:57.991Z,3.60
2022-08-09T06:06:30.176Z,3.30
2022-08-09T06:09:09.912Z,2.80
2022-08-09T06:11:56.911Z,3.10
2022-08-09T06:17:09.155Z,3.20
2022-08-09T06:19:41.388Z,3.30
2022-08-09T06:22:15.438Z,3.40
2022-08-09T06:24:47.049Z,3.70
2022-08-09T06:27:20.616Z,3.10
2022-08-09T06:29:58.581Z,3.60
2022-08-09T06:32:59.733Z,3.00
2022-08-09T06:35:55.924Z,2.60
2022-08-09T06:38:19.961Z,2.50
2022-08-09T06:41:03.682Z,3.90
2022-08-09T06:43:35.214Z,5.10
2022-08-09T06:46:11.276Z,5.20
2022-08-09T06:49:02.517Z,3.50
2022-08-09T06:51:39.139Z,3.20
2022-08-09T06:54:15.015Z,2.90
2022-08-09T06:56:47.025Z,2.60
2022-08-09T07:00:49.910Z,3.00
2022-08-09T07:02:10.262Z,2.70
2022-08-09T07:04:41.829Z,2.80
2022-08-09T07:08:00.144Z,2.80
2022-08-09T07:10:22.404Z,2.70
2022-08-09T07:12:57.754Z,2.40
2022-08-09T07:16:38.721Z,2.20
2022-08-09T07:18:21.442Z,2.60
2022-08-09T07:20:52.791Z,2.20
2022-08-09T07:23:24.379Z,2.70
2022-08-09T07:26:02.667Z,2.40
2022-08-09T07:28:35.077Z,2.40
2022-08-09T07:31:08.392Z,2.20
2022-08-09T07:33:52.995Z,2.60
2022-08-09T07:36:27.146Z,2.30
2022-08-09T07:39:01.060Z,2.40
2022-08-09T07:41:38.658Z,2.70
2022-08-09T07:44:15.751Z,2.40
2022-08-09T07:46:55.629Z,2.30
2022-08-09T07:49:29.476Z,2.20
2022-08-09T07:52:27.083Z,2.40
2022-08-09T07:54:57.548Z,2.40
2022-08-09T07:57:33.954Z,2.20
2022-08-09T08:00:10.714Z,2.40
2022-08-09T08:05:18.050Z,2.10
2022-08-09T08:08:45.217Z,2.60
2022-08-09T08:10:48.761Z,2.10
2022-08-09T08:13:40.038Z,2.30
2022-08-09T08:16:29.534Z,2.10
2022-08-09T08:19:04.489Z,2.20
2022-08-09T08:21:39.735Z,2.40
2022-08-09T08:24:16.627Z,2.40
2022-08-09T08:26:55.731Z,2.20
2022-08-09T08:29:39.405Z,2.30
2022-08-09T08:32:27.477Z,1.90
2022-08-09T08:35:01.412Z,2.00
2022-08-09T08:37:41.955Z,1.90
2022-08-09T08:40:26.968Z,1.50
2022-08-09T08:43:01.513Z,1.40
2022-08-09T08:45:50.746Z,1.70
2022-08-09T08:48:29.230Z,1.60
2022-08-09T08:51:02.590Z,1.90
2022-08-09T08:53:37.233Z,1.70
2022-08-09T08:56:16.784Z,1.70
2022-08-09T08:58:57.124Z,1.30
2022-08-09T09:01:28.617Z,1.60
2022-08-09T09:04:17.874Z,1.50
2022-08-09T09:07:02.959Z,1.20
2022-08-09T09:09:57.910Z,1.40
2022-08-09T09:12:35.603Z,1.20
2022-08-09T09:15:08.795Z,1.40
2022-08-09T09:17:49.609Z,1.00
2022-08-09T09:20:25.794Z,1.20
2022-08-09T09:23:01.613Z,1.20
2022-08-09T09:26:03.210Z,1.60
2022-08-09T09:29:01.801Z,1.20
2022-08-09T09:32:06.815Z,1.60
2022-08-09T09:34:19.869Z,1.40
2022-08-09T09:36:54.493Z,1.10
2022-08-09T09:39:54.898Z,1.30
2022-08-09T09:42:28.058Z,1.40
2022-08-09T09:45:05.561Z,1.40
2022-08-09T09:47:47.676Z,1.40
2022-08-09T09:50:51.039Z,1.60
2022-08-09T09:53:43.893Z,1.80
2022-08-09T09:56:30.956Z,1.50
2022-08-09T09:59:03.707Z,1.30
2022-08-09T10:01:38.152Z,1.70
2022-08-09T10:04:22.844Z,1.50
2022-08-09T10:07:03.288Z,1.40
2022-08-09T10:09:54.579Z,1.40
2022-08-09T10:12:34.708Z,1.40
2022-08-09T10:15:25.383Z,1.20
2022-08-09T10:18:15.239Z,1.50
2022-08-09T10:20:48.141Z,1.50
2022-08-09T10:23:24.266Z,1.50
2022-08-09T10:26:08.093Z,1.60
2022-08-09T10:28:48.778Z,1.40
2022-08-09T10:34:32.965Z,1.50
2022-08-09T10:37:09.644Z,1.80
2022-08-09T10:39:48.903Z,1.50
2022-08-09T10:42:21.215Z,1.40
2022-08-09T10:45:01.552Z,1.70
2022-08-09T10:48:20.265Z,1.80
2022-08-09T10:51:09.770Z,1.40
2022-08-09T10:53:58.597Z,1.90
2022-08-09T10:59:43.177Z,1.60
2022-08-09T11:03:16.530Z,1.20
2022-08-09T11:05:32.883Z,1.50
2022-08-09T11:11:08.755Z,1.50
2022-08-09T11:13:54.489Z,1.50
2022-08-09T11:16:41.023Z,1.40
2022-08-09T11:19:13.126Z,1.80
2022-08-09T11:22:16.583Z,1.60
2022-08-09T11:25:14.565Z,1.30
2022-08-09T11:28:03.789Z,1.40
2022-08-09T11:30:39.782Z,1.70
2022-08-09T11:33:50.251Z,1.40
2022-08-09T11:36:35.687Z,1.70
2022-08-09T11:39:08.652Z,1.30
2022-08-09T11:41:43.168Z,1.60
2022-08-09T11:44:17.358Z,1.50
2022-08-09T11:46:57.380Z,1.30
2022-08-09T11:50:54.017Z,1.60
2022-08-09T11:53:59.385Z,1.60
2022-08-09T11:56:41.751Z,1.40
2022-08-09T11:59:30.594Z,1.60
2022-08-09T12:02:18.087Z,1.60
2022-08-09T12:04:58.850Z,1.30
2022-08-09T12:07:41.503Z,1.70
2022-08-09T12:10:38.294Z,1.50
2022-08-09T12:14:09.658Z,1.50
2022-08-09T12:16:06.900Z,1.80
2022-08-09T12:18:59.200Z,1.70
2022-08-09T12:21:38.713Z,1.60
2022-08-09T12:24:13.190Z,1.60
2022-08-09T12:29:13.384Z,1.50
2022-08-09T12:29:51.297Z,1.80
2022-08-09T12:32:30.016Z,1.50
2022-08-09T12:35:05.083Z,1.90
2022-08-09T12:37:50.316Z,1.90
2022-08-09T12:40:27.491Z,1.80
2022-08-09T12:42:59.724Z,1.60
2022-08-09T12:45:35.018Z,1.30
2022-08-09T12:48:27.937Z,1.50
2022-08-09T12:51:04.819Z,1.60
2022-08-09T12:53:40.955Z,1.30
2022-08-09T12:56:40.181Z,1.70
2022-08-09T12:59:12.049Z,1.50
2022-08-09T13:01:49.858Z,1.30
2022-08-09T13:04:36.294Z,1.30
2022-08-09T13:07:19.406Z,1.90
2022-08-09T13:10:05.476Z,1.50
2022-08-09T13:13:09.127Z,1.60
2022-08-09T13:15:54.086Z,1.60
2022-08-09T13:18:27.833Z,1.80
2022-08-09T13:22:34.111Z,1.60
2022-08-09T13:24:07.004Z,1.40
2022-08-09T13:26:53.624Z,1.80
2022-08-09T13:29:41.913Z,1.50
2022-08-09T13:32:26.601Z,1.60
2022-08-09T13:35:00.405Z,1.30
2022-08-09T13:37:52.302Z,1.60
2022-08-09T13:41:46.924Z,1.80
2022-08-09T13:43:19.030Z,1.40
2022-08-09T13:46:43.249Z,1.50
2022-08-09T13:48:42.820Z,1.40
2022-08-09T13:51:20.064Z,1.60
2022-08-09T13:53:52.695Z,1.20
2022-08-09T13:56:25.532Z,1.40
2022-08-09T13:58:57.211Z,1.60
2022-08-09T14:01:56.482Z,1.60
2022-08-09T14:04:23.924Z,1.40
2022-08-09T14:07:00.399Z,1.50
2022-08-09T14:09:35.656Z,1.50
2022-08-09T14:12:15.484Z,1.70
2022-08-09T14:14:47.447Z,1.90
2022-08-09T14:17:25.690Z,1.50
2022-08-09T14:20:05.718Z,1.60
2022-08-09T14:22:38.696Z,1.40
2022-08-09T14:25:12.563Z,1.30
2022-08-09T14:30:37.267Z,1.30
2022-08-09T14:33:13.258Z,1.40
2022-08-09T14:35:53.470Z,1.50
2022-08-09T14:38:25.112Z,1.30
2022-08-09T14:41:01.359Z,1.70
2022-08-09T14:43:47.390Z,1.60
2022-08-09T14:46:54.602Z,1.60
2022-08-09T14:49:16.484Z,1.60
2022-08-09T14:51:48.066Z,1.40
2022-08-09T14:54:22.166Z,1.70
2022-08-09T14:56:57.650Z,1.40
2022-08-09T14:59:30.192Z,1.40
2022-08-09T15:02:02.652Z,1.70
2022-08-09T15:04:34.112Z,1.50
2022-08-09T15:07:06.020Z,1.60
2022-08-09T15:10:04.610Z,1.60
2022-08-09T15:12:33.983Z,1.50
2022-08-09T15:15:08.587Z,1.90
2022-08-09T15:17:42.071Z,1.50
2022-08-09T15:21:58.871Z,1.70
2022-08-09T15:24:03.298Z,1.60
2022-08-09T15:25:59.797Z,1.80
2022-08-09T15:28:33.389Z,1.80
2022-08-09T15:31:09.953Z,1.80
2022-08-09T15:34:17.546Z,1.60
2022-08-09T15:36:34.781Z,1.60
2022-08-09T15:39:06.341Z,1.60
2022-08-09T15:41:38.357Z,1.80
2022-08-09T15:44:14.499Z,1.80
2022-08-09T15:46:51.230Z,1.80
2022-08-09T15:49:24.027Z,1.60
2022-08-09T15:52:03.112Z,1.60
2022-08-09T15:54:49.364Z,1.70
2022-08-09T15:57:34.242Z,1.70
2022-08-09T16:00:10.972Z,1.70
2022-08-09T16:02:53.458Z,1.70
2022-08-09T16:05:47.739Z,1.90
2022-08-09T16:08:30.833Z,2.00
2022-08-09T16:11:03.982Z,1.90
2022-08-09T16:14:03.392Z,2.00
2022-08-09T16:16:31.955Z,2.20
2022-08-09T16:21:35.279Z,2.10
2022-08-09T16:24:19.992Z,2.00
2022-08-09T16:27:01.088Z,1.90
2022-08-09T16:29:37.374Z,2.20
2022-08-09T16:32:35.216Z,1.80
2022-08-09T16:35:08.052Z,2.10
2022-08-09T16:37:55.830Z,2.20
2022-08-09T16:40:40.398Z,2.00
2022-08-09T16:43:14.435Z,1.70
2022-08-09T16:45:46.435Z,2.20
2022-08-09T16:48:39.385Z,2.00
2022-08-09T16:51:14.323Z,2.00
2022-08-09T16:56:48.955Z,2.00
2022-08-09T16:59:21.080Z,2.60
2022-08-09T17:01:52.919Z,2.30
2022-08-09T17:04:28.445Z,2.10
2022-08-09T17:08:40.252Z,2.40
2022-08-09T17:09:52.668Z,2.20
2022-08-09T17:12:33.611Z,2.30
2022-08-09T17:15:30.499Z,2.10
2022-08-09T17:18:00.870Z,2.00
2022-08-09T17:20:38.871Z,2.30
2022-08-09T17:23:14.784Z,2.00
2022-08-09T17:25:52.958Z,2.50
2022-08-09T17:28:24.614Z,2.20
2022-08-09T17:30:58.458Z,2.10
2022-08-09T17:33:35.815Z,2.20
2022-08-09T17:36:15.761Z,2.10
2022-08-09T17:38:57.857Z,1.90
2022-08-09T17:41:38.553Z,2.10
2022-08-09T17:44:39.238Z,2.20
2022-08-09T17:47:04.149Z,2.10
2022-08-09T17:49:35.602Z,2.30
2022-08-09T17:52:08.075Z,2.30
2022-08-09T17:54:54.812Z,2.10
2022-08-09T17:58:03.876Z,2.30
2022-08-09T18:00:20.456Z,2.60
2022-08-09T18:03:06.700Z,2.60
2022-08-09T18:05:43.682Z,2.40
2022-08-09T18:08:16.212Z,2.90
2022-08-09T18:11:00.631Z,2.60
2022-08-09T18:13:39.258Z,2.50
2022-08-09T18:16:13.712Z,3.20
2022-08-09T18:18:49.105Z,3.10
2022-08-09T18:21:23.528Z,3.20
2022-08-09T18:24:10.554Z,3.20
2022-08-09T18:26:48.078Z,3.30
2022-08-09T18:30:38.914Z,2.90
2022-08-09T18:32:13.418Z,2.70
2022-08-09T18:34:45.243Z,3.10
2022-08-09T18:37:47.624Z,2.90
2022-08-09T18:40:11.781Z,3.00
2022-08-09T18:42:45.109Z,3.00
2022-08-09T18:45:21.547Z,3.00
2022-08-09T18:48:09.841Z,3.10
2022-08-09T18:50:42.845Z,3.20
2022-08-09T18:53:19.449Z,3.30
2022-08-09T18:55:57.302Z,3.00
2022-08-09T18:58:39.073Z,2.90
2022-08-09T19:01:11.384Z,2.80
2022-08-09T19:03:54.607Z,3.20
2022-08-09T19:06:38.409Z,3.20
2022-08-09T19:09:13.486Z,3.10
2022-08-09T19:11:52.168Z,3.30
2022-08-09T19:14:24.312Z,3.10
2022-08-09T19:17:00.699Z,3.00
2022-08-09T19:19:41.322Z,3.00
2022-08-09T19:22:15.242Z,3.10
2022-08-09T19:25:09.621Z,3.10
2022-08-09T19:27:40.520Z,2.90
2022-08-09T19:30:22.937Z,3.30
2022-08-09T19:33:01.201Z,3.20
2022-08-09T19:35:58.385Z,2.80
2022-08-09T19:38:24.737Z,3.30
2022-08-09T19:40:59.897Z,3.00
2022-08-09T19:44:02.160Z,3.20
2022-08-09T19:46:35.242Z,3.30
2022-08-09T19:50:08.467Z,3.30
2022-08-09T19:52:00.601Z,3.20
2022-08-09T19:54:35.049Z,2.90
2022-08-09T19:57:08.464Z,3.20
2022-08-09T20:00:00.049Z,3.30
2022-08-09T20:04:09.629Z,3.90
2022-08-09T20:05:26.977Z,3.20
2022-08-09T20:08:05.303Z,3.30
2022-08-09T20:10:38.489Z,3.50
2022-08-09T20:13:10.705Z,3.20
2022-08-09T20:16:34.152Z,3.60
2022-08-09T20:18:33.609Z,3.20
2022-08-09T20:21:08.548Z,3.30
2022-08-09T20:23:40.505Z,3.60
2022-08-09T20:26:13.158Z,3.50
2022-08-09T20:28:48.812Z,3.70
2022-08-09T20:31:22.457Z,3.30
2022-08-09T20:33:58.357Z,3.60
2022-08-09T20:36:33.442Z,3.70
2022-08-09T20:39:28.106Z,4.00
2022-08-09T20:42:01.418Z,3.90
2022-08-09T20:44:36.389Z,3.80
2022-08-09T20:47:45.502Z,3.60
2022-08-09T20:50:01.831Z,3.60
2022-08-09T20:52:34.952Z,3.50
2022-08-09T20:55:10.947Z,3.10
2022-08-09T20:58:05.194Z,4.20
2022-08-09T21:00:45.167Z,3.30
2022-08-09T21:03:22.033Z,3.30
2022-08-09T21:05:59.754Z,3.80
2022-08-09T21:08:36.508Z,3.30
2022-08-09T21:14:00.503Z,3.90
2022-08-09T21:16:32.101Z,3.60
2022-08-09T21:20:18.318Z,3.90
2022-08-09T21:21:57.401Z,4.10
2022-08-09T21:24:32.535Z,4.50
2022-08-09T21:27:50.207Z,4.00
2022-08-09T21:29:58.358Z,4.60
2022-08-09T21:32:33.654Z,4.20
2022-08-09T21:35:08.626Z,4.70
2022-08-09T21:37:58.804Z,4.70
2022-08-09T21:40:32.770Z,4.70
2022-08-09T21:43:06.370Z,4.70
2022-08-09T21:45:38.966Z,4.60
2022-08-09T21:48:11.607Z,4.10
2022-08-09T21:50:46.623Z,4.90
2022-08-09T21:53:39.839Z,4.50
2022-08-09T21:56:28.232Z,4.60
2022-08-09T21:59:04.094Z,4.80
2022-08-09T22:01:59.193Z,5.30
2022-08-09T22:04:55.598Z,4.30
2022-08-09T22:07:35.298Z,4.40
2022-08-09T22:10:14.873Z,4.90
2022-08-09T22:12:54.603Z,5.30
2022-08-09T22:15:34.728Z,5.90
2022-08-09T22:18:11.909Z,6.50
2022-08-09T22:20:44.010Z,6.50
2022-08-09T22:23:17.821Z,7.10
2022-08-09T22:26:07.646Z,6.00
2022-08-09T22:28:47.237Z,6.80
2022-08-09T22:31:25.958Z,6.20
2022-08-09T22:34:00.652Z,5.40
2022-08-09T22:36:45.690Z,5.40
2022-08-09T22:39:47.121Z,5.90
2022-08-09T22:42:20.991Z,5.50
2022-08-09T22:45:00.091Z,5.90
2022-08-09T22:48:18.808Z,5.90
2022-08-09T22:50:38.202Z,5.00
2022-08-09T22:53:09.742Z,5.60
2022-08-09T22:56:31.498Z,5.70
2022-08-09T22:58:33.744Z,5.60
2022-08-09T23:01:08.583Z,5.60
2022-08-09T23:04:03.244Z,5.50
2022-08-09T23:06:51.519Z,5.20
2022-08-09T23:09:23.431Z,4.80
2022-08-09T23:11:54.880Z,5.60
2022-08-09T23:14:37.352Z,5.30
2022-08-09T23:17:13.004Z,5.50
2022-08-09T23:20:00.633Z,5.70
2022-08-09T23:22:36.047Z,5.50
2022-08-09T23:25:08.420Z,5.40
2022-08-09T23:27:57.361Z,5.00
2022-08-09T23:30:31.907Z,6.10
2022-08-09T23:33:03.260Z,6.30
2022-08-09T23:36:04.457Z,6.70
2022-08-09T23:38:26.919Z,6.20
2022-08-09T23:40:58.978Z,6.70
2022-08-09T23:43:30.971Z,6.70
2022-08-09T23:46:02.623Z,6.70
2022-08-09T23:48:33.939Z,6.30
2022-08-09T23:51:05.830Z,6.20
2022-08-09T23:53:37.857Z,6.20
2022-08-09T23:56:11.829Z,6.60
2022-08-09T23:58:43.245Z,6.30
